createdAt,value
2018-09-01T00:02:31.611Z,99.90
2018-09-01T00:07:35.009Z,99.90
2018-09-01T00:12:38.624Z,99.90
2018-09-01T00:17:42.173Z,99.90
2018-09-01T00:22:45.623Z,99.90
2018-09-01T00:27:49.119Z,99.90
2018-09-01T00:32:52.574Z,99.90
2018-09-01T00:38:01.213Z,99.90
2018-09-01T00:43:04.749Z,99.90
2018-09-01T00:48:08.505Z,99.90
2018-09-01T00:53:11.857Z,99.90
2018-09-01T00:58:15.437Z,99.90
2018-09-01T01:03:18.877Z,99.90
2018-09-01T01:08:22.336Z,99.90
2018-09-01T01:13:25.892Z,99.90
2018-09-01T01:18:29.369Z,99.90
2018-09-01T01:28:35.903Z,99.90
2018-09-01T01:33:39.391Z,99.90
2018-09-01T01:38:42.818Z,99.90
2018-09-01T01:43:46.112Z,99.90
2018-09-01T01:48:49.620Z,99.90
2018-09-01T01:53:53.151Z,99.40
2018-09-01T01:58:57.933Z,99.40
2018-09-01T02:04:01.674Z,99.30
2018-09-01T02:09:06.584Z,98.90
2018-09-01T02:14:10.306Z,98.90
2018-09-01T02:19:14.056Z,98.90
2018-09-01T02:24:17.399Z,98.90
2018-09-01T02:29:20.774Z,99.10
2018-09-01T02:34:24.333Z,99.10
2018-09-01T02:39:27.757Z,98.90
2018-09-01T02:44:31.136Z,98.50
2018-09-01T02:49:34.664Z,98.20
2018-09-01T02:54:38.071Z,98.50
2018-09-01T02:59:41.438Z,98.70
2018-09-01T03:04:45.605Z,99.00
2018-09-01T03:09:48.957Z,99.00
2018-09-01T03:14:52.690Z,99.00
2018-09-01T03:19:56.119Z,99.00
2018-09-01T03:24:59.585Z,99.10
2018-09-01T03:30:02.952Z,99.30
2018-09-01T03:35:06.483Z,99.00
2018-09-01T03:40:09.933Z,98.80
2018-09-01T03:45:13.333Z,98.50
2018-09-01T03:50:16.818Z,98.20
2018-09-01T03:55:20.187Z,98.60
2018-09-01T04:00:26.352Z,98.80
2018-09-01T04:05:29.862Z,98.60
2018-09-01T04:10:33.233Z,98.70
2018-09-01T04:15:36.652Z,98.50
2018-09-01T04:20:40.054Z,98.60
2018-09-01T04:25:43.499Z,98.60
2018-09-01T04:30:46.941Z,98.60
2018-09-01T04:35:50.375Z,98.90
2018-09-01T04:40:53.746Z,98.90
2018-09-01T04:45:57.274Z,98.90
2018-09-01T04:51:00.661Z,99.00
2018-09-01T04:56:04.145Z,99.00
2018-09-01T05:01:07.743Z,99.00
2018-09-01T05:06:11.207Z,98.90
2018-09-01T05:11:14.696Z,99.00
2018-09-01T05:16:18.290Z,99.10
2018-09-01T05:21:21.797Z,98.90
2018-09-01T05:26:25.145Z,99.10
2018-09-01T05:31:28.485Z,99.00
2018-09-01T05:36:32.077Z,99.40
2018-09-01T05:41:35.440Z,99.30
2018-09-01T05:46:38.968Z,99.30
2018-09-01T05:51:42.364Z,99.00
2018-09-01T05:56:45.830Z,98.80
2018-09-01T06:01:49.183Z,98.60
2018-09-01T06:06:52.550Z,98.80
2018-09-01T06:11:55.930Z,98.60
2018-09-01T06:16:59.297Z,98.80
2018-09-01T06:22:02.723Z,98.10
2018-09-01T06:27:11.212Z,98.00
2018-09-01T06:32:14.975Z,97.80
2018-09-01T06:37:18.430Z,98.10
2018-09-01T06:42:21.861Z,97.80
2018-09-01T06:47:29.651Z,97.30
2018-09-01T06:52:33.184Z,97.20
2018-09-01T06:57:36.690Z,97.40
2018-09-01T07:02:40.193Z,97.40
2018-09-01T07:07:43.520Z,96.70
2018-09-01T07:12:47.005Z,97.00
2018-09-01T07:17:50.340Z,96.50
2018-09-01T07:22:53.657Z,96.80
2018-09-01T07:27:57.399Z,96.70
2018-09-01T07:33:00.968Z,96.70
2018-09-01T07:38:04.549Z,96.40
2018-09-01T07:43:08.077Z,96.40
2018-09-01T07:48:11.407Z,96.90
2018-09-01T07:53:14.940Z,96.90
2018-09-01T08:03:21.509Z,97.00
2018-09-01T08:08:24.957Z,96.80
2018-09-01T08:13:28.382Z,96.20
2018-09-01T08:18:31.838Z,96.60
2018-09-01T08:23:35.282Z,96.80
2018-09-01T08:28:38.761Z,96.40
2018-09-01T08:33:42.196Z,96.70
2018-09-01T08:38:45.486Z,96.60
2018-09-01T08:43:48.930Z,96.40
2018-09-01T08:48:53.084Z,96.40
2018-09-01T08:59:00.247Z,96.20
2018-09-01T09:04:03.874Z,96.00
2018-09-01T09:09:07.756Z,96.20
2018-09-01T09:14:11.313Z,96.30
2018-09-01T09:19:15.012Z,96.20
2018-09-01T09:24:18.796Z,96.00
2018-09-01T09:29:22.372Z,96.30
2018-09-01T09:34:26.117Z,96.60
2018-09-01T09:39:29.961Z,95.70
2018-09-01T09:44:33.464Z,95.80
2018-09-01T09:49:36.875Z,95.30
2018-09-01T09:54:40.514Z,95.30
2018-09-01T09:59:44.163Z,94.40
2018-09-01T10:04:47.941Z,94.80
2018-09-01T10:09:51.597Z,95.30
2018-09-01T10:14:55.243Z,95.40
2018-09-01T10:19:58.891Z,94.30
2018-09-01T10:25:02.449Z,94.70
2018-09-01T10:30:06.325Z,93.70
2018-09-01T10:35:09.995Z,93.70
2018-09-01T10:40:13.600Z,93.30
2018-09-01T10:45:16.980Z,93.30
2018-09-01T10:50:20.433Z,93.50
2018-09-01T10:55:23.750Z,93.60
2018-09-01T11:00:27.285Z,94.30
2018-09-01T11:05:30.776Z,94.00
2018-09-01T11:10:34.152Z,93.90
2018-09-01T11:15:37.584Z,93.20
2018-09-01T11:20:40.997Z,93.60
2018-09-01T11:25:44.406Z,92.80
2018-09-01T11:30:47.914Z,92.60
2018-09-01T11:35:51.333Z,92.40
2018-09-01T11:40:54.707Z,92.00
2018-09-01T11:45:58.181Z,92.00
2018-09-01T11:51:01.701Z,92.30
2018-09-01T11:56:05.168Z,92.10
2018-09-01T12:01:08.540Z,93.00
2018-09-01T12:06:12.082Z,91.80
2018-09-01T12:11:15.535Z,92.00
2018-09-01T12:16:18.861Z,92.20
2018-09-01T12:21:22.265Z,92.10
2018-09-01T12:26:25.549Z,91.70
2018-09-01T12:31:28.869Z,91.50
2018-09-01T12:36:32.205Z,91.60
2018-09-01T12:41:35.540Z,91.50
2018-09-01T12:46:38.844Z,91.30
2018-09-01T12:51:42.850Z,91.10
2018-09-01T12:56:46.201Z,91.00
2018-09-01T13:01:49.515Z,91.10
2018-09-01T13:06:53.001Z,91.40
2018-09-01T13:11:56.510Z,91.30
2018-09-01T13:16:59.839Z,91.10
2018-09-01T13:22:03.392Z,91.30
2018-09-01T13:27:06.802Z,91.30
2018-09-01T13:32:10.328Z,91.30
2018-09-01T13:37:13.817Z,91.30
2018-09-01T13:42:17.123Z,91.50
2018-09-01T13:47:20.460Z,91.00
2018-09-01T13:52:23.785Z,90.90
2018-09-01T13:57:27.296Z,91.10
2018-09-01T14:02:30.634Z,91.10
2018-09-01T14:07:34.014Z,91.40
2018-09-01T14:12:37.921Z,91.40
2018-09-01T14:17:41.583Z,91.50
2018-09-01T14:22:44.902Z,91.40
2018-09-01T14:27:48.321Z,91.60
2018-09-01T14:32:51.661Z,91.90
2018-09-01T14:37:55.165Z,91.80
2018-09-01T14:42:58.566Z,91.60
2018-09-01T14:48:02.024Z,91.60
2018-09-01T14:53:05.517Z,91.80
2018-09-01T14:58:08.973Z,91.90
2018-09-01T15:03:12.335Z,92.00
2018-09-01T15:08:15.717Z,92.10
2018-09-01T15:13:19.046Z,92.00
2018-09-01T15:18:22.645Z,92.00
2018-09-01T15:23:26.441Z,92.10
2018-09-01T15:28:30.023Z,92.60
2018-09-01T15:33:33.505Z,93.80
2018-09-01T15:38:36.837Z,94.20
2018-09-01T15:43:40.145Z,94.40
2018-09-01T15:48:43.541Z,94.20
2018-09-01T15:53:46.883Z,94.60
2018-09-01T15:58:51.015Z,94.80
2018-09-01T16:03:54.407Z,94.80
2018-09-01T16:08:57.862Z,95.10
2018-09-01T16:14:01.185Z,95.30
2018-09-01T16:19:04.759Z,95.20
2018-09-01T16:24:08.089Z,95.50
2018-09-01T16:29:11.614Z,95.40
2018-09-01T16:34:14.940Z,95.10
2018-09-01T16:39:18.545Z,95.30
2018-09-01T16:44:21.910Z,95.20
2018-09-01T16:49:25.389Z,95.40
2018-09-01T16:54:28.966Z,96.00
2018-09-01T16:59:32.592Z,95.80
2018-09-01T17:04:36.009Z,95.80
2018-09-01T17:09:39.459Z,95.70
2018-09-01T17:14:42.837Z,95.90
2018-09-01T17:19:46.342Z,96.30
2018-09-01T17:24:49.802Z,96.40
2018-09-01T17:29:54.241Z,96.30
2018-09-01T17:34:57.778Z,96.70
2018-09-01T17:40:01.136Z,96.70
2018-09-01T17:45:04.597Z,96.80
2018-09-01T17:50:07.958Z,96.40
2018-09-01T17:55:11.337Z,96.90
2018-09-01T18:00:14.634Z,96.30
2018-09-01T18:05:17.974Z,96.60
2018-09-01T18:10:21.442Z,96.40
2018-09-01T18:15:24.761Z,96.40
2018-09-01T18:20:28.289Z,96.40
2018-09-01T18:25:31.833Z,96.40
2018-09-01T18:30:35.297Z,96.80
2018-09-01T18:35:38.646Z,96.70
2018-09-01T18:40:42.038Z,96.50
2018-09-01T18:45:45.444Z,96.90
2018-09-01T18:50:48.870Z,96.70
2018-09-01T18:55:52.265Z,97.00
2018-09-01T19:00:55.763Z,96.70
2018-09-01T19:05:59.148Z,96.50
2018-09-01T19:11:02.519Z,96.50
2018-09-01T19:16:05.964Z,96.60
2018-09-01T19:21:09.390Z,96.70
2018-09-01T19:26:13.237Z,96.80
2018-09-01T19:31:17.889Z,96.70
2018-09-01T19:36:22.006Z,96.90
2018-09-01T19:41:26.015Z,97.20
2018-09-01T19:46:29.729Z,96.80
2018-09-01T19:51:33.046Z,96.60
2018-09-01T19:56:36.494Z,97.00
2018-09-01T20:01:40.283Z,97.10
2018-09-01T20:06:43.809Z,97.10
2018-09-01T20:11:47.678Z,97.10
2018-09-01T20:21:56.252Z,97.00
2018-09-01T20:27:00.274Z,97.00
2018-09-01T20:32:04.033Z,97.10
2018-09-01T20:37:08.005Z,97.00
2018-09-01T20:42:11.598Z,97.00
2018-09-01T20:47:15.319Z,97.10
2018-09-01T20:52:19.393Z,97.10
2018-09-01T20:57:23.084Z,97.20
2018-09-01T21:02:26.965Z,97.10
2018-09-01T21:07:30.584Z,97.30
2018-09-01T21:12:34.207Z,97.40
2018-09-01T21:17:38.512Z,97.40
2018-09-01T21:22:42.369Z,97.50
2018-09-01T21:27:46.434Z,97.70
2018-09-01T21:32:50.558Z,97.90
2018-09-01T21:37:54.835Z,98.50
2018-09-01T21:42:58.676Z,99.40
2018-09-01T21:48:02.149Z,99.10
2018-09-01T21:53:05.712Z,99.90
2018-09-01T21:58:09.621Z,99.90
2018-09-01T22:03:13.739Z,99.90
2018-09-01T22:08:17.265Z,99.60
2018-09-01T22:13:20.646Z,99.80
2018-09-01T22:18:24.196Z,99.90
2018-09-01T22:23:27.589Z,99.90
2018-09-01T22:28:30.897Z,99.90
2018-09-01T22:33:34.229Z,99.90
2018-09-01T22:38:37.645Z,99.90
2018-09-01T22:43:40.980Z,99.90
2018-09-01T22:48:44.304Z,99.90
2018-09-01T22:53:47.956Z,99.90
2018-09-01T22:58:51.262Z,99.90
2018-09-01T23:03:54.684Z,99.90
2018-09-01T23:08:58.002Z,99.90
2018-09-01T23:14:01.474Z,99.90
2018-09-01T23:19:05.628Z,99.90
2018-09-01T23:24:08.944Z,99.90
2018-09-01T23:29:12.341Z,99.90
2018-09-01T23:34:15.684Z,99.90
2018-09-01T23:39:19.027Z,99.90
2018-09-01T23:44:22.391Z,99.90
2018-09-01T23:49:25.724Z,99.90
2018-09-01T23:54:29.082Z,99.90
2018-09-01T23:59:32.465Z,99.90
